Time;durP1;ratioP1;P1;durP2;ratioP2;P2;SDS_P1;SDS_P2;PMS_P1;PMS_P2;Temp;Humidity;BMP_temperature;BMP_pressure;BME280_temperature;BME280_humidity;BME280_pressure;Samples;Min_cycle;Max_cycle;Signal;HPM_P1;HPM_P2
2021/12/27 00:02:15;;;;;;;13.20;8.88;;;;;;;;;;5033463;28;20045;-65
2021/12/27 00:04:42;;;;;;;11.63;7.72;;;;;;;;;;5033813;28;20517;-65
2021/12/27 00:07:10;;;;;;;13.45;8.68;;;;;;;;;;5033629;28;20045;-65
2021/12/27 00:09:37;;;;;;;12.23;8.00;;;;;;;;;;5033747;28;20065;-66
2021/12/27 00:12:06;;;;;;;13.20;8.75;;;;;;;;;;5033524;28;20495;-64
2021/12/27 00:14:33;;;;;;;12.55;8.20;;;;;;;;;;5033453;28;20049;-65
2021/12/27 00:17:00;;;;;;;12.02;7.90;;;;;;;;;;5033415;28;20499;-64
2021/12/27 00:19:27;;;;;;;13.55;8.32;;;;;;;;;;5033098;28;20051;-65
2021/12/27 00:21:54;;;;;;;13.15;8.57;;;;;;;;;;5033504;28;20288;-66
2021/12/27 00:24:21;;;;;;;12.90;8.02;;;;;;;;;;5033268;28;20053;-65
2021/12/27 00:26:48;;;;;;;11.32;7.25;;;;;;;;;;5033176;28;20060;-65
2021/12/27 00:29:16;;;;;;;12.63;8.13;;;;;;;;;;5032867;28;20060;-65
2021/12/27 00:31:43;;;;;;;12.63;8.00;;;;;;;;;;5033158;28;20490;-65
2021/12/27 00:34:10;;;;;;;14.18;8.10;;;;;;;;;;5033031;28;20056;-66
2021/12/27 00:36:37;;;;;;;11.88;8.00;;;;;;;;;;5033081;28;20494;-65
2021/12/27 00:39:04;;;;;;;12.65;8.13;;;;;;;;;;5032668;28;20402;-66
2021/12/27 00:41:31;;;;;;;12.77;8.45;;;;;;;;;;5032917;28;20097;-65
2021/12/27 00:43:58;;;;;;;12.68;7.97;;;;;;;;;;5032803;28;20521;-65
2021/12/27 00:46:26;;;;;;;12.60;7.95;;;;;;;;;;5032928;28;20403;-65
2021/12/27 00:48:53;;;;;;;12.65;8.75;;;;;;;;;;5032569;28;20405;-65
2021/12/27 00:51:20;;;;;;;11.15;7.75;;;;;;;;;;5032789;28;20049;-65
2021/12/27 00:53:47;;;;;;;12.20;7.60;;;;;;;;;;5032738;28;20061;-65
2021/12/27 00:56:14;;;;;;;12.85;8.23;;;;;;;;;;5032665;28;20494;-65
2021/12/27 00:58:41;;;;;;;14.32;7.60;;;;;;;;;;5032433;28;20434;-65
2021/12/27 01:01:08;;;;;;;10.40;7.10;;;;;;;;;;5031815;28;20050;-65
2021/12/27 01:03:37;;;;;;;13.18;7.78;;;;;;;;;;5032533;28;20049;-65
2021/12/27 01:06:04;;;;;;;10.60;7.00;;;;;;;;;;5032529;28;20252;-64
2021/12/27 01:08:32;;;;;;;12.68;8.15;;;;;;;;;;5032376;28;20049;-65
2021/12/27 01:11:12;;;;;;;13.18;7.82;;;;;;;;;;5032521;28;20053;-65
2021/12/27 01:13:43;;;;;;;12.13;7.40;;;;;;;;;;5032368;28;20049;-65
2021/12/27 01:16:12;;;;;;;11.57;7.20;;;;;;;;;;5032596;28;20770;-66
2021/12/27 01:18:43;;;;;;;11.52;6.97;;;;;;;;;;5032228;28;20049;-66
2021/12/27 01:21:10;;;;;;;11.07;7.10;;;;;;;;;;5032110;28;20057;-65
2021/12/27 01:23:38;;;;;;;11.98;7.18;;;;;;;;;;5032332;28;20045;-66
2021/12/27 01:26:05;;;;;;;10.18;6.75;;;;;;;;;;5032251;28;20084;-65
2021/12/27 01:28:32;;;;;;;10.05;5.85;;;;;;;;;;5032060;28;20053;-65
2021/12/27 01:30:59;;;;;;;9.82;6.63;;;;;;;;;;5032207;28;20434;-65
2021/12/27 01:33:26;;;;;;;9.20;6.68;;;;;;;;;;5032025;28;20056;-65
2021/12/27 01:35:55;;;;;;;8.95;5.72;;;;;;;;;;5031964;28;20053;-65
2021/12/27 01:38:22;;;;;;;9.38;5.70;;;;;;;;;;5031966;28;20518;-66
2021/12/27 01:40:53;;;;;;;11.32;6.30;;;;;;;;;;5031913;28;20052;-66
2021/12/27 01:43:24;;;;;;;9.88;6.50;;;;;;;;;;5032139;28;20054;-65
2021/12/27 01:45:53;;;;;;;9.82;6.78;;;;;;;;;;5032097;28;20068;-64
2021/12/27 01:48:24;;;;;;;9.10;5.93;;;;;;;;;;5031667;28;20404;-65
2021/12/27 01:50:52;;;;;;;10.95;6.93;;;;;;;;;;5031963;28;20045;-66
2021/12/27 01:53:23;;;;;;;9.43;6.05;;;;;;;;;;5031979;28;20132;-65
2021/12/27 01:55:52;;;;;;;9.43;6.38;;;;;;;;;;5032128;28;20058;-65
2021/12/27 01:58:19;;;;;;;11.13;6.28;;;;;;;;;;5031705;28;20060;-65
2021/12/27 02:00:53;;;;;;;10.48;6.22;;;;;;;;;;5031751;28;20057;-65
2021/12/27 02:03:22;;;;;;;10.43;6.15;;;;;;;;;;5031609;28;20050;-65
2021/12/27 02:05:50;;;;;;;9.57;6.25;;;;;;;;;;5032118;28;20372;-65
2021/12/27 02:08:17;;;;;;;9.43;6.00;;;;;;;;;;5031568;28;20050;-65
2021/12/27 02:10:45;;;;;;;9.02;5.93;;;;;;;;;;5031645;28;20057;-65
2021/12/27 02:13:12;;;;;;;10.38;5.85;;;;;;;;;;5035239;28;20140;-65
2021/12/27 02:15:39;;;;;;;10.77;6.60;;;;;;;;;;5035709;28;20045;-66
2021/12/27 02:18:08;;;;;;;8.93;5.88;;;;;;;;;;5035423;28;20076;-65
2021/12/27 02:20:38;;;;;;;9.98;6.63;;;;;;;;;;5035794;28;20056;-65
2021/12/27 02:23:15;;;;;;;9.07;6.28;;;;;;;;;;5035472;28;20049;-65
2021/12/27 02:25:43;;;;;;;11.32;6.22;;;;;;;;;;5035596;28;20069;-65
2021/12/27 02:28:12;;;;;;;9.95;6.40;;;;;;;;;;5035274;28;20050;-66
2021/12/27 02:30:41;;;;;;;8.70;5.68;;;;;;;;;;5035311;28;20049;-65
2021/12/27 02:33:09;;;;;;;11.45;6.43;;;;;;;;;;5035846;28;20049;-65
2021/12/27 02:35:38;;;;;;;12.45;6.32;;;;;;;;;;5035342;28;20056;-66
2021/12/27 02:38:08;;;;;;;8.60;5.55;;;;;;;;;;5035056;28;20054;-65
2021/12/27 02:40:36;;;;;;;9.15;5.70;;;;;;;;;;5035112;28;20055;-65
2021/12/27 02:43:07;;;;;;;9.30;5.65;;;;;;;;;;5035131;28;20052;-65
2021/12/27 02:45:36;;;;;;;8.70;6.10;;;;;;;;;;5035253;28;20092;-65
2021/12/27 02:48:04;;;;;;;10.25;5.63;;;;;;;;;;5034932;28;20056;-64
2021/12/27 02:50:32;;;;;;;8.40;5.65;;;;;;;;;;5035072;28;20063;-65
2021/12/27 02:53:00;;;;;;;8.68;5.40;;;;;;;;;;5035094;28;20473;-65
2021/12/27 02:55:29;;;;;;;9.70;5.60;;;;;;;;;;5035018;28;20482;-65
2021/12/27 02:57:56;;;;;;;9.40;5.63;;;;;;;;;;5034894;28;20056;-65
2021/12/27 03:00:27;;;;;;;8.35;6.15;;;;;;;;;;5034789;28;20053;-66
2021/12/27 03:02:55;;;;;;;7.57;5.30;;;;;;;;;;5054963;22;20512;-78
2021/12/27 03:05:24;;;;;;;7.55;5.10;;;;;;;;;;5040762;28;20050;-78
2021/12/27 03:07:52;;;;;;;11.13;5.85;;;;;;;;;;5040723;28;20046;-78
2021/12/27 03:10:22;;;;;;;11.27;6.18;;;;;;;;;;5038255;28;20104;-77
2021/12/27 03:12:50;;;;;;;8.90;5.93;;;;;;;;;;5036470;28;20107;-79
2021/12/27 03:15:19;;;;;;;9.38;5.90;;;;;;;;;;5036091;28;20107;-80
2021/12/27 03:17:48;;;;;;;8.13;5.55;;;;;;;;;;5036170;28;20104;-79
2021/12/27 03:20:17;;;;;;;8.98;5.25;;;;;;;;;;5036152;28;20049;-78
2021/12/27 03:22:44;;;;;;;9.30;5.50;;;;;;;;;;5036266;28;20080;-78
2021/12/27 03:25:13;;;;;;;8.77;5.40;;;;;;;;;;5036064;28;20053;-78
2021/12/27 03:27:42;;;;;;;9.27;5.47;;;;;;;;;;5038258;28;20112;-79
2021/12/27 03:30:12;;;;;;;8.48;5.78;;;;;;;;;;5039248;28;20102;-79
2021/12/27 03:32:39;;;;;;;9.02;5.90;;;;;;;;;;5039391;28;20050;-79
2021/12/27 03:35:13;;;;;;;8.90;6.05;;;;;;;;;;5040370;28;20045;-79
2021/12/27 03:37:42;;;;;;;9.27;5.35;;;;;;;;;;5038847;28;20077;-79
2021/12/27 03:40:12;;;;;;;9.52;5.80;;;;;;;;;;5040109;28;20045;-78
2021/12/27 03:42:40;;;;;;;8.45;5.20;;;;;;;;;;5039397;28;20071;-78
2021/12/27 03:45:09;;;;;;;10.05;6.45;;;;;;;;;;5039207;28;20128;-78
2021/12/27 03:47:36;;;;;;;9.43;5.78;;;;;;;;;;5039865;28;20080;-78
2021/12/27 03:50:03;;;;;;;9.25;5.80;;;;;;;;;;5040207;28;20053;-78
2021/12/27 03:52:30;;;;;;;9.77;6.18;;;;;;;;;;5040296;28;20053;-78
2021/12/27 03:54:57;;;;;;;11.05;6.15;;;;;;;;;;5040333;28;20054;-78
2021/12/27 03:57:24;;;;;;;9.07;5.63;;;;;;;;;;5036655;28;20100;-78
2021/12/27 04:00:15;;;;;;;7.25;5.10;;;;;;;;;;5035641;28;20496;-78
2021/12/27 04:02:40;;;;;;;9.30;5.78;;;;;;;;;;5037909;28;20076;-79
2021/12/27 04:05:09;;;;;;;10.05;5.75;;;;;;;;;;5040186;28;20172;-78
2021/12/27 04:07:36;;;;;;;8.80;5.50;;;;;;;;;;5034450;28;20080;-78
2021/12/27 04:10:04;;;;;;;8.07;5.35;;;;;;;;;;5034951;28;20140;-78
2021/12/27 04:12:31;;;;;;;7.72;5.15;;;;;;;;;;5034751;28;20045;-78
2021/12/27 04:14:59;;;;;;;10.05;5.47;;;;;;;;;;5034538;28;20046;-78
2021/12/27 04:17:26;;;;;;;8.80;5.25;;;;;;;;;;5034563;28;20050;-78
2021/12/27 04:19:52;;;;;;;11.77;4.80;;;;;;;;;;5033985;28;20099;-78
2021/12/27 04:22:19;;;;;;;9.63;5.18;;;;;;;;;;5034748;28;20042;-78
2021/12/27 04:24:46;;;;;;;8.20;4.82;;;;;;;;;;5034421;28;20054;-78
2021/12/27 04:27:13;;;;;;;6.95;4.72;;;;;;;;;;5035616;28;20393;-78
2021/12/27 04:29:40;;;;;;;7.22;4.50;;;;;;;;;;5039009;28;20096;-78
2021/12/27 04:32:09;;;;;;;6.65;4.70;;;;;;;;;;5038062;28;20057;-78
2021/12/27 04:34:36;;;;;;;7.72;4.70;;;;;;;;;;5034886;28;20041;-78
2021/12/27 04:37:03;;;;;;;6.25;3.90;;;;;;;;;;5033813;28;20497;-78
2021/12/27 04:39:30;;;;;;;5.88;3.90;;;;;;;;;;5033790;28;20045;-78
2021/12/27 04:41:57;;;;;;;6.35;4.22;;;;;;;;;;5033674;28;20562;-78
2021/12/27 04:44:24;;;;;;;5.15;3.30;;;;;;;;;;5034224;28;20463;-78
2021/12/27 04:46:51;;;;;;;4.70;2.85;;;;;;;;;;5033710;28;20397;-78
2021/12/27 04:49:19;;;;;;;6.05;3.28;;;;;;;;;;5033743;28;20095;-78
2021/12/27 04:51:46;;;;;;;4.80;2.85;;;;;;;;;;5033863;28;20057;-78
2021/12/27 04:54:14;;;;;;;5.60;3.25;;;;;;;;;;5033554;28;20133;-78
2021/12/27 04:56:40;;;;;;;5.78;3.20;;;;;;;;;;5033981;28;20112;-77
2021/12/27 04:59:07;;;;;;;6.15;3.38;;;;;;;;;;5033885;28;20412;-80
2021/12/27 05:01:34;;;;;;;5.10;2.97;;;;;;;;;;5034810;28;20401;-80
2021/12/27 05:04:01;;;;;;;7.50;3.63;;;;;;;;;;5034194;28;20103;-81
2021/12/27 05:06:29;;;;;;;6.18;3.33;;;;;;;;;;5033325;28;20049;-78
2021/12/27 05:08:56;;;;;;;4.95;2.95;;;;;;;;;;5033697;28;20049;-78
2021/12/27 05:11:23;;;;;;;4.00;2.70;;;;;;;;;;5034425;28;20095;-80
2021/12/27 05:13:50;;;;;;;7.00;2.90;;;;;;;;;;5034377;28;20107;-80
2021/12/27 05:16:17;;;;;;;6.68;3.13;;;;;;;;;;5034309;28;20058;-80
2021/12/27 05:18:43;;;;;;;6.15;3.15;;;;;;;;;;5034432;28;20041;-80
2021/12/27 05:21:10;;;;;;;5.38;3.28;;;;;;;;;;5034663;28;20045;-79
2021/12/27 05:23:38;;;;;;;7.25;3.50;;;;;;;;;;5034791;28;20049;-80
2021/12/27 05:26:06;;;;;;;11.18;5.20;;;;;;;;;;5034495;28;20041;-78
2021/12/27 05:28:32;;;;;;;5.68;2.90;;;;;;;;;;5034300;28;20100;-79
2021/12/27 05:30:59;;;;;;;4.90;2.97;;;;;;;;;;5034421;28;20099;-79
2021/12/27 05:33:26;;;;;;;5.50;3.13;;;;;;;;;;5034100;28;20057;-79
2021/12/27 05:35:53;;;;;;;4.95;2.97;;;;;;;;;;5033779;28;20049;-80
2021/12/27 05:38:19;;;;;;;5.90;3.67;;;;;;;;;;5033510;28;20049;-78
2021/12/27 05:40:48;;;;;;;5.50;3.08;;;;;;;;;;5034032;28;20107;-78
2021/12/27 05:43:15;;;;;;;6.15;3.42;;;;;;;;;;5033617;28;20045;-80
2021/12/27 05:45:43;;;;;;;6.45;3.42;;;;;;;;;;5037981;28;20068;-78
2021/12/27 05:48:09;;;;;;;4.63;3.50;;;;;;;;;;5038634;28;20061;-79
2021/12/27 05:50:37;;;;;;;6.05;3.55;;;;;;;;;;5038874;28;20270;-79
2021/12/27 05:53:04;;;;;;;5.60;3.38;;;;;;;;;;5037632;28;20049;-79
2021/12/27 05:55:31;;;;;;;6.38;3.53;;;;;;;;;;5038167;28;20071;-79
2021/12/27 05:58:00;;;;;;;5.28;3.35;;;;;;;;;;5038517;28;20099;-79
2021/12/27 06:00:27;;;;;;;5.85;3.53;;;;;;;;;;5037733;28;20045;-80
2021/12/27 06:02:55;;;;;;;6.13;2.92;;;;;;;;;;5038123;28;20403;-78
2021/12/27 06:05:22;;;;;;;4.20;2.90;;;;;;;;;;5038544;28;20099;-79
2021/12/27 06:07:50;;;;;;;5.28;2.80;;;;;;;;;;5038707;28;20050;-80
2021/12/27 06:10:17;;;;;;;7.00;3.42;;;;;;;;;;5038263;28;20057;-80
2021/12/27 06:12:45;;;;;;;6.45;2.95;;;;;;;;;;5038310;28;20299;-80
2021/12/27 06:15:14;;;;;;;4.80;3.05;;;;;;;;;;5037105;28;20053;-78
2021/12/27 06:17:42;;;;;;;5.50;2.80;;;;;;;;;;5037038;28;20046;-79
2021/12/27 06:20:12;;;;;;;5.32;3.13;;;;;;;;;;5040580;28;20060;-79
2021/12/27 06:22:42;;;;;;;5.05;3.03;;;;;;;;;;5039388;28;20443;-78
2021/12/27 06:25:09;;;;;;;5.82;3.08;;;;;;;;;;5035207;28;20119;-80
2021/12/27 06:27:36;;;;;;;6.00;3.08;;;;;;;;;;5038607;28;20054;-80
2021/12/27 06:30:06;;;;;;;5.00;2.92;;;;;;;;;;5040663;28;20049;-79
2021/12/27 06:32:35;;;;;;;5.68;3.22;;;;;;;;;;5039964;28;20050;-81
2021/12/27 06:35:02;;;;;;;6.47;3.00;;;;;;;;;;5040456;28;20080;-79
2021/12/27 06:37:29;;;;;;;5.63;3.53;;;;;;;;;;5039473;28;20173;-79
2021/12/27 06:39:55;;;;;;;5.53;2.97;;;;;;;;;;5039087;28;20103;-79
2021/12/27 06:42:22;;;;;;;5.60;2.97;;;;;;;;;;5039007;28;20072;-80
2021/12/27 06:44:49;;;;;;;5.63;2.92;;;;;;;;;;5041257;28;20050;-79
2021/12/27 06:47:16;;;;;;;4.75;2.53;;;;;;;;;;5043827;28;20080;-79
2021/12/27 06:49:44;;;;;;;4.75;2.80;;;;;;;;;;5045741;28;20470;-79
2021/12/27 06:52:12;;;;;;;25.65;15.50;;;;;;;;;;5040550;28;20049;-78
2021/12/27 06:54:38;;;;;;;27.27;16.25;;;;;;;;;;5040431;28;20135;-80
2021/12/27 06:57:05;;;;;;;18.13;11.20;;;;;;;;;;5039800;28;20050;-80
2021/12/27 06:59:32;;;;;;;8.27;4.75;;;;;;;;;;5041230;28;20049;-80
2021/12/27 07:01:59;;;;;;;5.72;2.90;;;;;;;;;;5042755;28;20050;-78
2021/12/27 07:04:26;;;;;;;5.43;2.85;;;;;;;;;;5042816;28;20045;-80
2021/12/27 07:06:54;;;;;;;5.95;3.40;;;;;;;;;;5042134;28;20133;-79
2021/12/27 07:09:21;;;;;;;6.32;3.22;;;;;;;;;;5042699;28;20116;-79
2021/12/27 07:11:48;;;;;;;6.00;3.58;;;;;;;;;;5043128;28;20049;-79
2021/12/27 07:14:15;;;;;;;6.95;3.72;;;;;;;;;;5043289;28;20562;-79
2021/12/27 07:16:42;;;;;;;8.73;3.85;;;;;;;;;;5041556;28;20072;-80
2021/12/27 07:19:08;;;;;;;7.20;4.13;;;;;;;;;;5041208;28;20045;-80
2021/12/27 07:21:35;;;;;;;7.57;4.20;;;;;;;;;;5041102;28;20045;-80
2021/12/27 07:24:04;;;;;;;6.78;4.03;;;;;;;;;;5042750;28;20061;-80
2021/12/27 07:26:31;;;;;;;7.60;4.30;;;;;;;;;;5043461;28;20456;-80
2021/12/27 07:28:58;;;;;;;6.40;4.32;;;;;;;;;;5040784;28;20452;-80
2021/12/27 07:31:24;;;;;;;9.32;4.55;;;;;;;;;;5042515;28;20111;-80
2021/12/27 07:33:52;;;;;;;7.63;4.30;;;;;;;;;;5042237;28;20096;-80
2021/12/27 07:36:18;;;;;;;9.38;4.70;;;;;;;;;;5043387;28;20041;-80
2021/12/27 07:38:46;;;;;;;7.55;4.25;;;;;;;;;;5047384;28;20045;-80
2021/12/27 07:41:14;;;;;;;10.43;4.40;;;;;;;;;;5047902;28;20049;-80
2021/12/27 07:43:41;;;;;;;8.90;4.65;;;;;;;;;;5047985;28;20053;-80
2021/12/27 07:46:08;;;;;;;9.98;4.78;;;;;;;;;;5046942;28;20075;-79
2021/12/27 07:48:35;;;;;;;7.30;4.47;;;;;;;;;;5045466;28;20049;-79
2021/12/27 07:51:01;;;;;;;8.35;4.70;;;;;;;;;;5039975;28;20045;-80
2021/12/27 07:53:28;;;;;;;7.60;3.92;;;;;;;;;;5040472;28;20111;-80
2021/12/27 07:55:55;;;;;;;7.78;3.80;;;;;;;;;;5040181;28;20475;-79
2021/12/27 07:58:23;;;;;;;8.23;4.18;;;;;;;;;;5039486;28;20115;-79
2021/12/27 08:00:50;;;;;;;7.35;4.50;;;;;;;;;;5038871;28;20053;-79
2021/12/27 08:03:18;;;;;;;7.82;4.78;;;;;;;;;;5039161;28;20061;-80
2021/12/27 08:05:45;;;;;;;8.57;4.63;;;;;;;;;;5040834;28;20456;-80
2021/12/27 08:08:12;;;;;;;7.70;4.70;;;;;;;;;;5042640;28;20477;-80
2021/12/27 08:10:39;;;;;;;8.10;4.70;;;;;;;;;;5042076;28;20049;-79
2021/12/27 08:13:06;;;;;;;8.88;5.05;;;;;;;;;;5042893;28;20523;-79
2021/12/27 08:15:34;;;;;;;9.07;4.95;;;;;;;;;;5043606;28;20054;-80
2021/12/27 08:18:01;;;;;;;8.15;5.32;;;;;;;;;;5042671;28;20111;-80
2021/12/27 08:20:28;;;;;;;9.80;5.72;;;;;;;;;;5043470;28;20049;-80
2021/12/27 08:22:55;;;;;;;9.75;5.65;;;;;;;;;;5042857;28;20045;-80
2021/12/27 08:25:22;;;;;;;8.10;5.43;;;;;;;;;;5041648;28;20107;-79
2021/12/27 08:27:49;;;;;;;9.20;5.47;;;;;;;;;;5040734;28;20045;-80
2021/12/27 08:30:15;;;;;;;10.07;5.68;;;;;;;;;;5038358;28;20468;-80
2021/12/27 08:32:46;;;;;;;9.50;5.72;;;;;;;;;;5037839;28;20049;-80
2021/12/27 08:35:13;;;;;;;;;;;;;;;;;;5038874;28;20084;-80
2021/12/27 08:37:43;;;;;;;9.88;6.40;;;;;;;;;;5037781;28;19925;-80
2021/12/27 08:40:11;;;;;;;10.25;6.18;;;;;;;;;;5037011;28;20099;-80
2021/12/27 08:42:38;;;;;;;9.85;5.78;;;;;;;;;;5035279;28;20474;-77
2021/12/27 08:45:06;;;;;;;10.23;6.18;;;;;;;;;;5035639;28;20056;-77
2021/12/27 08:47:33;;;;;;;10.07;6.75;;;;;;;;;;5036899;28;20053;-80
2021/12/27 08:50:01;;;;;;;12.23;6.65;;;;;;;;;;5037864;28;20115;-80
2021/12/27 08:52:29;;;;;;;10.60;6.70;;;;;;;;;;5037080;28;20061;-80
2021/12/27 08:54:56;;;;;;;10.75;7.38;;;;;;;;;;5036960;28;20416;-80
2021/12/27 08:57:23;;;;;;;13.38;7.90;;;;;;;;;;5036889;28;20076;-80
2021/12/27 08:59:50;;;;;;;12.52;7.68;;;;;;;;;;5036792;28;20045;-80
2021/12/27 09:04:45;;;;;;;12.85;7.82;;;;;;;;;;5061071;22;20057;-62
2021/12/27 09:07:15;;;;;;;13.48;8.00;;;;;;;;;;5032594;28;20060;-62
2021/12/27 09:09:43;;;;;;;12.70;8.07;;;;;;;;;;5032700;28;20063;-62
2021/12/27 09:12:11;;;;;;;11.38;7.15;;;;;;;;;;5032561;28;20053;-62
2021/12/27 09:14:38;;;;;;;11.63;7.85;;;;;;;;;;5032537;28;20458;-62
2021/12/27 09:17:05;;;;;;;11.85;8.10;;;;;;;;;;5032464;28;20061;-62
2021/12/27 09:19:32;;;;;;;13.68;8.63;;;;;;;;;;5032229;28;20045;-62
2021/12/27 09:22:00;;;;;;;14.18;8.30;;;;;;;;;;5031663;28;20049;-62
2021/12/27 09:24:31;;;;;;;13.30;7.75;;;;;;;;;;5032505;28;20156;-62
2021/12/27 09:26:58;;;;;;;13.52;8.50;;;;;;;;;;5032418;28;20422;-62
2021/12/27 09:29:25;;;;;;;13.32;8.18;;;;;;;;;;5032038;28;20057;-62
2021/12/27 09:31:52;;;;;;;12.00;7.47;;;;;;;;;;5032122;28;20053;-62
2021/12/27 09:34:20;;;;;;;13.38;9.07;;;;;;;;;;5032383;28;20174;-63
2021/12/27 09:36:47;;;;;;;11.65;8.13;;;;;;;;;;5032339;28;20060;-62
2021/12/27 09:39:14;;;;;;;17.25;8.00;;;;;;;;;;5031838;28;20053;-62
2021/12/27 09:41:42;;;;;;;13.70;8.95;;;;;;;;;;5032153;28;20057;-62
2021/12/27 09:44:10;;;;;;;14.35;8.35;;;;;;;;;;5032193;28;20058;-62
2021/12/27 09:46:37;;;;;;;15.98;8.23;;;;;;;;;;5032375;28;20052;-62
2021/12/27 09:49:07;;;;;;;10.98;7.25;;;;;;;;;;5031749;28;20049;-62
2021/12/27 09:51:37;;;;;;;14.93;8.98;;;;;;;;;;5032217;28;20050;-62
2021/12/27 09:54:05;;;;;;;12.93;8.05;;;;;;;;;;5031955;28;20065;-63
2021/12/27 09:56:32;;;;;;;12.65;8.13;;;;;;;;;;5032053;28;20060;-63
2021/12/27 09:59:00;;;;;;;14.50;8.10;;;;;;;;;;5031701;28;20045;-63
2021/12/27 10:01:27;;;;;;;13.05;7.70;;;;;;;;;;5032423;28;20140;-63
2021/12/27 10:03:56;;;;;;;13.13;7.78;;;;;;;;;;5031773;28;20060;-63
2021/12/27 10:06:25;;;;;;;12.05;8.10;;;;;;;;;;5031957;28;20051;-63
2021/12/27 10:08:54;;;;;;;11.98;7.10;;;;;;;;;;5031644;28;20061;-63
2021/12/27 10:11:23;;;;;;;27.60;15.88;;;;;;;;;;5032111;28;20563;-63
2021/12/27 10:14:03;;;;;;;14.02;8.52;;;;;;;;;;5031853;28;20049;-63
2021/12/27 10:16:33;;;;;;;10.02;7.57;;;;;;;;;;5032036;28;20491;-63
2021/12/27 10:19:01;;;;;;;13.63;7.90;;;;;;;;;;5031493;28;20060;-63
2021/12/27 10:21:29;;;;;;;11.40;6.75;;;;;;;;;;5031777;28;20072;-63
2021/12/27 10:24:08;;;;;;;11.50;7.82;;;;;;;;;;5031577;28;20076;-63
2021/12/27 10:26:36;;;;;;;10.82;6.82;;;;;;;;;;5032202;28;20403;-63
2021/12/27 10:29:11;;;;;;;11.45;6.97;;;;;;;;;;5032060;28;20072;-63
2021/12/27 10:31:55;;;;;;;11.88;7.30;;;;;;;;;;5032435;28;20490;-63
2021/12/27 10:34:24;;;;;;;10.18;7.38;;;;;;;;;;5036108;28;20056;-63
2021/12/27 10:37:14;;;;;;;12.23;6.65;;;;;;;;;;5035909;28;20059;-63
2021/12/27 10:39:46;;;;;;;10.10;6.63;;;;;;;;;;5032907;28;20050;-63
2021/12/27 10:42:16;;;;;;;11.50;7.57;;;;;;;;;;5035225;28;20056;-63
2021/12/27 10:44:45;;;;;;;12.50;7.83;;;;;;;;;;5035331;28;20057;-63
2021/12/27 10:47:37;;;;;;;11.75;7.75;;;;;;;;;;5035296;28;20050;-63
2021/12/27 10:50:16;;;;;;;12.43;8.32;;;;;;;;;;5035412;28;20064;-63
2021/12/27 10:52:58;;;;;;;11.05;8.32;;;;;;;;;;5035153;28;20061;-63
2021/12/27 10:55:30;;;;;;;11.65;7.78;;;;;;;;;;5035537;28;20045;-63
2021/12/27 10:58:13;;;;;;;10.45;7.32;;;;;;;;;;5035012;28;20049;-63
2021/12/27 11:00:43;;;;;;;11.88;7.30;;;;;;;;;;5035066;28;20144;-63
2021/12/27 11:03:24;;;;;;;13.30;8.15;;;;;;;;;;5034602;28;20046;-63
2021/12/27 11:05:51;;;;;;;13.05;7.95;;;;;;;;;;5034865;28;20049;-63
2021/12/27 11:08:18;;;;;;;11.45;7.70;;;;;;;;;;5034568;28;20053;-63
2021/12/27 11:10:45;;;;;;;11.82;8.45;;;;;;;;;;5034766;28;20060;-63
2021/12/27 11:13:12;;;;;;;12.73;9.07;;;;;;;;;;5034637;28;20541;-63
2021/12/27 11:15:40;;;;;;;15.90;8.43;;;;;;;;;;5034761;28;20045;-63
2021/12/27 11:18:08;;;;;;;13.48;9.13;;;;;;;;;;5034843;28;20119;-63
2021/12/27 11:20:36;;;;;;;13.32;8.90;;;;;;;;;;5034554;28;20041;-63
2021/12/27 11:23:04;;;;;;;14.43;9.27;;;;;;;;;;5034604;28;20049;-63
2021/12/27 11:25:33;;;;;;;12.45;8.98;;;;;;;;;;5034608;28;20042;-63
2021/12/27 11:28:01;;;;;;;14.35;9.88;;;;;;;;;;5034309;28;20050;-63
2021/12/27 11:30:31;;;;;;;12.75;8.52;;;;;;;;;;5034264;28;20053;-63
2021/12/27 11:33:09;;;;;;;12.88;7.75;;;;;;;;;;5034374;28;20053;-63
2021/12/27 11:35:40;;;;;;;14.57;8.75;;;;;;;;;;5034228;28;20092;-63
2021/12/27 11:38:07;;;;;;;11.40;7.63;;;;;;;;;;5034042;28;20050;-63
2021/12/27 11:40:42;;;;;;;12.35;8.25;;;;;;;;;;5034400;28;20050;-63
2021/12/27 11:43:09;;;;;;;12.90;8.50;;;;;;;;;;5034402;28;20426;-63
2021/12/27 11:45:46;;;;;;;12.85;8.52;;;;;;;;;;5033499;28;20053;-62
2021/12/27 11:48:15;;;;;;;13.48;8.20;;;;;;;;;;5034314;28;20045;-62
2021/12/27 11:51:09;;;;;;;10.68;7.50;;;;;;;;;;5033856;28;20054;-62
2021/12/27 11:53:42;;;;;;;12.80;8.60;;;;;;;;;;5032524;28;20053;-62
2021/12/27 11:56:10;;;;;;;11.27;8.00;;;;;;;;;;5034040;28;20053;-63
2021/12/27 11:58:38;;;;;;;12.43;8.25;;;;;;;;;;5033730;28;20045;-62
2021/12/27 12:01:07;;;;;;;11.07;7.10;;;;;;;;;;5033840;28;20068;-62
2021/12/27 12:03:41;;;;;;;10.02;7.00;;;;;;;;;;5033569;28;20057;-62
2021/12/27 12:06:36;;;;;;;10.10;7.57;;;;;;;;;;5033703;28;20045;-62
2021/12/27 12:09:10;;;;;;;13.70;8.98;;;;;;;;;;5033449;28;20053;-62
2021/12/27 12:11:37;;;;;;;17.52;11.15;;;;;;;;;;5033657;28;20058;-63
2021/12/27 12:14:29;;;;;;;14.93;10.02;;;;;;;;;;5033829;28;20120;-63
2021/12/27 12:16:58;;;;;;;10.48;7.05;;;;;;;;;;5033649;28;20049;-63
2021/12/27 12:19:38;;;;;;;12.00;7.93;;;;;;;;;;5033119;28;20056;-63
2021/12/27 12:22:05;;;;;;;12.10;7.05;;;;;;;;;;5033297;28;20050;-62
2021/12/27 12:24:34;;;;;;;11.82;7.32;;;;;;;;;;5033462;28;20053;-63
2021/12/27 12:27:03;;;;;;;11.23;7.40;;;;;;;;;;5033468;28;20049;-63
2021/12/27 12:29:37;;;;;;;10.90;7.45;;;;;;;;;;5033337;28;20053;-63
2021/12/27 12:32:06;;;;;;;11.32;6.82;;;;;;;;;;5033462;28;20046;-63
2021/12/27 12:34:34;;;;;;;10.90;7.00;;;;;;;;;;5033236;28;20530;-63
2021/12/27 12:37:04;;;;;;;10.35;6.78;;;;;;;;;;5033190;28;20505;-63
2021/12/27 12:39:41;;;;;;;10.83;7.33;;;;;;;;;;5033031;28;20045;-63
2021/12/27 12:42:11;;;;;;;10.90;7.63;;;;;;;;;;5033028;28;20108;-63
2021/12/27 12:44:53;;;;;;;18.65;11.68;;;;;;;;;;5033044;28;20057;-63
2021/12/27 12:47:21;;;;;;;12.25;7.93;;;;;;;;;;5032969;28;20072;-63
2021/12/27 12:49:48;;;;;;;11.68;7.25;;;;;;;;;;5032724;28;20053;-63
2021/12/27 12:52:16;;;;;;;11.25;7.70;;;;;;;;;;5032905;28;20042;-63
2021/12/27 12:54:45;;;;;;;10.55;7.40;;;;;;;;;;5033011;28;20053;-63
2021/12/27 12:57:15;;;;;;;11.30;7.60;;;;;;;;;;5033381;28;20210;-63
2021/12/27 12:59:44;;;;;;;10.77;7.68;;;;;;;;;;5032682;28;20045;-63
2021/12/27 13:02:14;;;;;;;11.15;8.07;;;;;;;;;;5032976;28;20057;-63
2021/12/27 13:04:47;;;;;;;11.50;8.25;;;;;;;;;;5032793;28;20053;-63
2021/12/27 13:07:16;;;;;;;11.35;7.25;;;;;;;;;;5032775;28;20046;-63
2021/12/27 13:09:47;;;;;;;11.73;7.15;;;;;;;;;;5032954;28;20069;-63
2021/12/27 13:12:14;;;;;;;;;;;;;;;;;;5032981;28;20045;-63
2021/12/27 13:14:41;;;;;;;8.80;6.40;;;;;;;;;;5032566;28;19936;-63
2021/12/27 13:17:14;;;;;;;10.50;6.28;;;;;;;;;;5032539;28;20045;-63
2021/12/27 13:20:15;;;;;;;13.98;9.25;;;;;;;;;;5032096;28;20144;-63
2021/12/27 13:22:46;;;;;;;;;;;;;;;;;;4991158;28;20050;-63
2021/12/27 13:25:29;;;;;;;21.13;14.20;;;;;;;;;;4990774;28;19929;-63
2021/12/27 13:28:07;;;;;;;20.75;13.35;;;;;;;;;;5014837;28;20045;-63
2021/12/27 13:30:54;;;;;;;22.90;14.45;;;;;;;;;;5032179;28;20049;-63
2021/12/27 13:33:24;;;;;;;24.08;14.70;;;;;;;;;;5032387;28;20057;-63
2021/12/27 13:35:52;;;;;;;23.88;15.75;;;;;;;;;;5032155;28;20049;-63
2021/12/27 13:38:21;;;;;;;26.17;16.00;;;;;;;;;;5032025;28;20111;-62
2021/12/27 13:40:52;;;;;;;24.55;15.82;;;;;;;;;;5032089;28;20062;-62
2021/12/27 13:43:19;;;;;;;23.00;16.13;;;;;;;;;;5032116;28;20061;-62
2021/12/27 13:45:45;;;;;;;26.10;17.08;;;;;;;;;;5032140;28;20054;-62
2021/12/27 13:48:13;;;;;;;25.20;16.65;;;;;;;;;;5032247;28;20576;-62
2021/12/27 13:50:42;;;;;;;25.10;17.33;;;;;;;;;;5032062;28;20132;-63
2021/12/27 13:53:14;;;;;;;23.83;16.10;;;;;;;;;;5031897;28;20049;-63
2021/12/27 13:55:42;;;;;;;27.33;17.30;;;;;;;;;;5032580;28;20046;-63
2021/12/27 13:58:23;;;;;;;24.42;16.58;;;;;;;;;;5031762;28;20049;-63
2021/12/27 14:00:53;;;;;;;26.45;17.80;;;;;;;;;;5032211;28;20089;-63
2021/12/27 14:03:34;;;;;;;28.37;19.07;;;;;;;;;;5031776;28;20053;-63
2021/12/27 14:06:03;;;;;;;32.67;19.35;;;;;;;;;;5031678;28;20748;-63
2021/12/27 14:08:32;;;;;;;32.97;19.55;;;;;;;;;;5033918;28;20100;-63
2021/12/27 14:11:11;;;;;;;31.85;20.00;;;;;;;;;;5035999;28;20060;-63
2021/12/27 14:13:57;;;;;;;29.35;17.77;;;;;;;;;;5035865;28;20103;-63
2021/12/27 14:16:27;;;;;;;30.13;18.00;;;;;;;;;;5035722;28;20049;-63
2021/12/27 14:19:01;;;;;;;29.40;17.48;;;;;;;;;;5036747;28;20510;-63
2021/12/27 14:21:28;;;;;;;31.88;19.38;;;;;;;;;;5035889;28;20438;-63
2021/12/27 14:24:03;;;;;;;31.52;18.17;;;;;;;;;;5035649;28;20052;-63
2021/12/27 14:26:30;;;;;;;29.15;17.63;;;;;;;;;;5035930;28;20054;-64
2021/12/27 14:29:17;;;;;;;31.05;18.92;;;;;;;;;;5035317;28;20510;-64
2021/12/27 14:31:48;;;;;;;32.28;18.77;;;;;;;;;;5036051;28;20053;-64
2021/12/27 14:34:15;;;;;;;31.25;18.38;;;;;;;;;;5035696;28;20584;-63
2021/12/27 14:36:49;;;;;;;39.85;22.08;;;;;;;;;;5035833;28;20413;-63
2021/12/27 14:39:16;;;;;;;36.70;22.50;;;;;;;;;;5035166;28;20124;-65
2021/12/27 14:41:43;;;;;;;33.72;20.45;;;;;;;;;;5035454;28;20140;-64
2021/12/27 14:44:10;;;;;;;32.40;18.85;;;;;;;;;;5035242;28;20053;-63
2021/12/27 14:46:42;;;;;;;30.58;18.40;;;;;;;;;;5035367;28;20058;-63
2021/12/27 14:49:10;;;;;;;30.83;18.60;;;;;;;;;;5035158;28;20050;-63
2021/12/27 14:51:37;;;;;;;33.45;19.58;;;;;;;;;;5035535;28;20046;-63